Time;durP1;ratioP1;P1;durP2;ratioP2;P2;SDS_P1;SDS_P2;PMS_P1;PMS_P2;Temp;Humidity;BMP_temperature;BMP_pressure;BME280_temperature;BME280_humidity;BME280_pressure;Samples;Min_cycle;Max_cycle;Signal;HPM_P1;HPM_P2
2023/06/05 00:01:50;;;;;;;3.30;2.22;;;12.90;97.50;;;;;;4896604;29;20384;-69
2023/06/05 00:04:17;;;;;;;4.00;2.95;;;12.90;98.10;;;;;;4881347;29;20032;-69
2023/06/05 00:06:43;;;;;;;4.63;2.10;;;12.80;98.60;;;;;;4884542;29;20054;-69
2023/06/05 00:09:10;;;;;;;5.63;2.38;;;12.70;98.70;;;;;;4902827;29;20027;-68
2023/06/05 00:11:36;;;;;;;4.18;1.63;;;12.70;98.80;;;;;;4900877;29;20120;-69
2023/06/05 00:14:02;;;;;;;7.63;3.55;;;12.70;99.00;;;;;;4888019;29;20031;-69
2023/06/05 00:16:29;;;;;;;3.83;2.33;;;12.70;99.20;;;;;;4883142;29;20039;-68
2023/06/05 00:18:55;;;;;;;5.05;2.67;;;12.60;99.50;;;;;;4897573;29;20039;-69
2023/06/05 00:21:22;;;;;;;4.45;2.20;;;12.60;99.80;;;;;;4875067;29;20031;-69
2023/06/05 00:23:48;;;;;;;3.38;2.40;;;12.60;99.90;;;;;;4900009;29;20047;-70
2023/06/05 00:26:14;;;;;;;4.82;2.22;;;12.50;99.90;;;;;;4882213;29;20039;-69
2023/06/05 00:28:40;;;;;;;2.80;2.10;;;12.50;99.90;;;;;;4899847;29;20047;-70
2023/06/05 00:31:07;;;;;;;2.95;2.08;;;12.50;99.90;;;;;;4878915;29;20039;-70
2023/06/05 00:33:33;;;;;;;5.20;2.75;;;12.40;99.90;;;;;;4902367;29;20054;-70
2023/06/05 00:36:00;;;;;;;3.92;2.40;;;12.40;99.90;;;;;;4903045;29;20042;-69
2023/06/05 00:38:26;;;;;;;4.43;2.45;;;12.40;99.90;;;;;;4868384;29;20310;-69
2023/06/05 00:40:53;;;;;;;5.97;3.00;;;12.30;99.90;;;;;;4876690;29;20495;-69
2023/06/05 00:43:19;;;;;;;3.22;2.28;;;12.30;99.90;;;;;;4884430;29;20044;-69
2023/06/05 00:45:45;;;;;;;2.47;2.28;;;12.30;99.90;;;;;;4870494;29;20043;-69
2023/06/05 00:48:13;;;;;;;3.30;2.35;;;12.20;99.90;;;;;;4901504;29;20051;-69
2023/06/05 00:50:39;;;;;;;8.35;3.45;;;12.20;99.90;;;;;;4878160;29;20714;-70
2023/06/05 00:53:07;;;;;;;6.97;4.28;;;12.20;99.90;;;;;;4906201;29;20039;-69
2023/06/05 00:55:34;;;;;;;4.53;3.17;;;12.20;99.90;;;;;;4872665;29;20495;-69
2023/06/05 00:58:03;;;;;;;3.83;2.38;;;12.20;99.90;;;;;;4885536;29;20164;-68
2023/06/05 01:00:29;;;;;;;3.88;2.70;;;12.10;99.90;;;;;;4892918;29;20513;-69
2023/06/05 01:02:58;;;;;;;6.43;3.90;;;12.10;99.90;;;;;;4895641;29;20076;-69
2023/06/05 01:05:26;;;;;;;4.13;3.40;;;12.10;99.90;;;;;;4899352;29;20046;-70
2023/06/05 01:07:53;;;;;;;3.28;2.72;;;12.10;99.90;;;;;;4898647;29;20042;-69
2023/06/05 01:10:19;;;;;;;3.67;2.75;;;12.00;99.90;;;;;;4879811;29;20043;-70
2023/06/05 01:13:01;;;;;;;5.32;3.10;;;12.00;99.90;;;;;;4904507;29;20032;-69
2023/06/05 01:15:29;;;;;;;6.05;3.58;;;12.00;99.90;;;;;;4904529;29;20070;-69
2023/06/05 01:18:00;;;;;;;3.63;2.97;;;11.90;99.90;;;;;;4902789;29;20035;-69
2023/06/05 01:20:34;;;;;;;4.65;3.47;;;11.90;99.90;;;;;;4862988;29;20027;-70
2023/06/05 01:23:10;;;;;;;4.20;3.20;;;11.90;99.90;;;;;;4882778;29;20040;-71
2023/06/05 01:25:40;;;;;;;5.75;3.70;;;11.90;99.90;;;;;;4900568;29;20487;-70
2023/06/05 01:28:08;;;;;;;4.57;2.60;;;11.90;99.90;;;;;;4883991;29;20699;-70
2023/06/05 01:30:44;;;;;;;6.28;4.22;;;11.80;99.90;;;;;;4876240;29;20035;-69
2023/06/05 01:33:24;;;;;;;6.53;4.40;;;11.80;99.90;;;;;;4904637;29;20058;-69
2023/06/05 01:35:53;;;;;;;7.32;4.20;;;11.80;99.90;;;;;;4904647;29;20023;-69
2023/06/05 01:38:20;;;;;;;8.05;5.03;;;11.70;99.90;;;;;;4888404;29;20043;-69
2023/06/05 01:40:49;;;;;;;8.05;4.45;;;11.70;99.90;;;;;;4876129;29;20383;-69
2023/06/05 01:43:18;;;;;;;6.55;4.47;;;11.60;99.90;;;;;;4883748;29;20032;-69
2023/06/05 01:45:45;;;;;;;10.68;5.25;;;11.60;99.90;;;;;;4897917;29;20043;-70
2023/06/05 01:48:11;;;;;;;5.80;4.60;;;11.60;99.90;;;;;;4898851;29;20039;-70
2023/06/05 01:50:38;;;;;;;5.70;4.50;;;11.60;99.90;;;;;;4897286;29;20619;-69
2023/06/05 01:53:05;;;;;;;6.00;4.05;;;11.50;99.90;;;;;;4904068;29;20035;-70
2023/06/05 01:55:32;;;;;;;6.13;4.47;;;11.50;99.90;;;;;;4890900;29;20027;-70
2023/06/05 01:57:58;;;;;;;7.45;5.60;;;11.50;99.90;;;;;;4894432;29;20047;-70
2023/06/05 02:00:25;;;;;;;5.68;4.60;;;11.50;99.90;;;;;;4885679;29;20048;-70
2023/06/05 02:02:51;;;;;;;7.35;4.80;;;11.50;99.90;;;;;;4885068;29;20055;-69
2023/06/05 02:05:19;;;;;;;8.38;4.35;;;11.40;99.90;;;;;;4903452;29;20035;-69
2023/06/05 02:07:49;;;;;;;7.90;5.28;;;11.40;99.90;;;;;;4887808;29;20031;-69
2023/06/05 02:10:18;;;;;;;7.65;5.68;;;11.30;99.90;;;;;;4866186;29;20050;-69
2023/06/05 02:12:45;;;;;;;7.28;4.82;;;11.30;99.90;;;;;;4888536;29;20629;-70
2023/06/05 02:15:13;;;;;;;5.55;4.50;;;11.30;99.90;;;;;;4889527;29;20403;-70
2023/06/05 02:17:44;;;;;;;5.57;4.45;;;11.20;99.90;;;;;;4908085;29;20027;-70
2023/06/05 02:20:15;;;;;;;6.55;5.00;;;11.20;99.90;;;;;;4900760;29;20059;-69
2023/06/05 02:22:44;;;;;;;5.93;5.03;;;11.20;99.90;;;;;;4872283;29;20040;-70
2023/06/05 02:25:12;;;;;;;7.45;4.55;;;11.10;99.90;;;;;;4900580;29;20035;-69
2023/06/05 02:27:38;;;;;;;7.15;5.63;;;11.10;99.90;;;;;;4886702;29;21232;-69
2023/06/05 02:30:06;;;;;;;6.63;5.57;;;11.10;99.90;;;;;;4878969;29;20350;-70
2023/06/05 02:32:33;;;;;;;8.88;5.75;;;11.10;99.90;;;;;;4886848;29;20047;-69
2023/06/05 02:34:59;;;;;;;7.38;6.28;;;11.10;99.90;;;;;;4903198;29;20032;-69
2023/06/05 02:37:27;;;;;;;5.30;4.70;;;11.00;99.90;;;;;;4903999;29;20542;-70
2023/06/05 02:39:53;;;;;;;7.75;5.25;;;11.00;99.90;;;;;;4902607;29;20048;-69
2023/06/05 02:42:20;;;;;;;6.43;4.85;;;10.90;99.90;;;;;;4908202;29;20039;-69
2023/06/05 02:44:48;;;;;;;6.57;5.13;;;11.00;99.90;;;;;;4889762;29;20039;-69
2023/06/05 02:47:15;;;;;;;7.97;7.18;;;10.90;99.90;;;;;;4904177;29;20042;-70
2023/06/05 02:49:41;;;;;;;7.97;6.25;;;10.90;99.90;;;;;;4881474;29;20684;-68
2023/06/05 02:52:08;;;;;;;9.07;6.10;;;10.90;99.90;;;;;;4900629;29;20031;-69
2023/06/05 02:54:34;;;;;;;9.15;7.55;;;10.80;99.90;;;;;;4886080;29;20067;-69
2023/06/05 02:57:07;;;;;;;7.35;6.10;;;10.80;99.90;;;;;;4871406;29;20455;-70
2023/06/05 02:59:39;;;;;;;8.27;5.85;;;10.80;99.90;;;;;;4898094;29;20042;-69
2023/06/05 03:02:06;;;;;;;7.15;6.03;;;10.80;99.90;;;;;;4890713;29;20024;-70
2023/06/05 03:04:33;;;;;;;9.98;7.45;;;10.80;99.90;;;;;;4890088;29;20042;-70
2023/06/05 03:07:03;;;;;;;6.70;5.70;;;10.80;99.90;;;;;;4887536;29;20031;-69
2023/06/05 03:09:31;;;;;;;5.63;4.93;;;10.70;99.90;;;;;;4882149;29;20032;-69
2023/06/05 03:11:58;;;;;;;8.27;6.97;;;10.70;99.90;;;;;;4866884;29;20062;-68
2023/06/05 03:14:26;;;;;;;6.82;5.32;;;10.70;99.90;;;;;;4884900;29;20039;-70
2023/06/05 03:16:53;;;;;;;6.57;5.32;;;10.70;99.90;;;;;;4882171;29;20044;-70
2023/06/05 03:19:20;;;;;;;6.40;5.50;;;10.70;99.90;;;;;;4897478;29;20043;-69
2023/06/05 03:21:48;;;;;;;8.48;6.70;;;10.60;99.90;;;;;;4904678;29;20035;-69
2023/06/05 03:24:15;;;;;;;9.27;8.30;;;10.60;99.90;;;;;;4889928;29;20051;-70
2023/06/05 03:26:44;;;;;;;9.68;7.88;;;10.60;99.90;;;;;;4891343;29;20047;-69
2023/06/05 03:29:12;;;;;;;7.88;7.07;;;10.50;99.90;;;;;;4883848;29;20040;-69
2023/06/05 03:31:39;;;;;;;9.60;7.55;;;10.50;99.90;;;;;;4895384;29;20032;-69
2023/06/05 03:34:06;;;;;;;8.40;7.43;;;10.50;99.90;;;;;;4900488;29;20298;-69
2023/06/05 03:36:34;;;;;;;9.38;7.40;;;10.50;99.90;;;;;;4884710;29;20032;-69
2023/06/05 03:39:05;;;;;;;8.98;7.20;;;10.50;99.90;;;;;;4883410;29;20031;-69
2023/06/05 03:41:31;;;;;;;8.45;7.25;;;10.50;99.90;;;;;;4880878;29;20048;-69
2023/06/05 03:43:58;;;;;;;9.57;6.88;;;10.50;99.90;;;;;;4906307;29;20028;-68
2023/06/05 03:46:25;;;;;;;9.93;6.90;;;10.50;99.90;;;;;;4906700;29;20035;-69
2023/06/05 03:48:55;;;;;;;8.40;7.50;;;10.50;99.90;;;;;;4902651;29;20032;-70
2023/06/05 03:51:22;;;;;;;7.55;6.80;;;10.50;99.90;;;;;;4881165;29;20044;-69
2023/06/05 03:53:54;;;;;;;11.90;7.47;;;10.50;99.90;;;;;;4897705;29;20027;-70
2023/06/05 03:56:21;;;;;;;11.98;9.57;;;10.50;99.90;;;;;;4886682;29;20040;-70
2023/06/05 03:58:48;;;;;;;13.65;10.18;;;10.60;99.90;;;;;;4881223;29;20047;-69
2023/06/05 04:01:15;;;;;;;11.65;9.02;;;10.50;99.90;;;;;;4877228;29;20476;-70
2023/06/05 04:03:41;;;;;;;9.80;8.60;;;10.50;99.90;;;;;;4884600;29;20046;-69
2023/06/05 04:06:08;;;;;;;8.50;7.10;;;10.50;99.90;;;;;;4889936;29;20039;-68
2023/06/05 04:08:35;;;;;;;12.18;8.57;;;10.50;99.90;;;;;;4905876;28;20047;-70
2023/06/05 04:11:01;;;;;;;12.45;9.30;;;10.60;99.90;;;;;;4879398;29;20031;-69
2023/06/05 04:13:27;;;;;;;10.20;5.85;;;10.60;99.90;;;;;;4880960;29;20050;-69
2023/06/05 04:15:54;;;;;;;9.75;7.65;;;10.60;99.90;;;;;;4899032;29;20035;-70
2023/06/05 04:18:22;;;;;;;10.57;8.10;;;10.70;99.90;;;;;;4897764;29;20586;-68
2023/06/05 04:20:51;;;;;;;11.48;9.15;;;10.70;99.90;;;;;;4860278;29;20062;-68
2023/06/05 04:23:18;;;;;;;7.18;6.32;;;10.70;99.90;;;;;;4898892;29;20533;-70
2023/06/05 04:25:45;;;;;;;11.00;8.02;;;10.80;99.90;;;;;;4905469;29;20028;-69
2023/06/05 04:28:12;;;;;;;10.75;7.85;;;10.80;99.90;;;;;;4906653;29;20051;-68
2023/06/05 04:30:39;;;;;;;9.13;6.95;;;10.80;99.90;;;;;;4895364;29;20023;-68
2023/06/05 04:33:06;;;;;;;11.45;7.72;;;10.90;99.90;;;;;;4897549;29;20043;-69
2023/06/05 04:35:33;;;;;;;7.50;6.43;;;10.90;99.90;;;;;;4884283;29;20058;-70
2023/06/05 04:38:00;;;;;;;12.00;8.63;;;11.00;99.90;;;;;;4899650;29;20194;-70
2023/06/05 04:40:27;;;;;;;11.45;8.73;;;11.10;99.90;;;;;;4894272;29;20032;-70
2023/06/05 04:42:54;;;;;;;9.43;7.40;;;11.10;99.90;;;;;;4884450;29;20249;-69
2023/06/05 04:45:24;;;;;;;9.88;7.75;;;11.10;99.90;;;;;;4885969;29;20047;-69
2023/06/05 04:47:51;;;;;;;12.32;9.02;;;11.20;99.90;;;;;;4889908;29;20470;-70
2023/06/05 04:50:26;;;;;;;6.97;5.55;;;11.20;99.90;;;;;;4880624;29;20047;-68
2023/06/05 04:52:56;;;;;;;7.10;6.38;;;11.30;99.90;;;;;;4900964;29;20457;-69
2023/06/05 04:55:23;;;;;;;11.25;9.10;;;11.40;99.90;;;;;;4884046;29;20638;-69
2023/06/05 04:57:53;;;;;;;10.52;8.77;;;11.50;99.90;;;;;;4897463;29;20403;-69
2023/06/05 05:00:19;;;;;;;12.95;9.25;;;11.60;99.90;;;;;;4891203;29;20039;-69
2023/06/05 05:02:47;;;;;;;9.93;7.20;;;11.60;99.90;;;;;;4867496;29;20047;-69
2023/06/05 05:05:14;;;;;;;8.65;6.72;;;11.70;99.90;;;;;;4880537;29;20047;-69
2023/06/05 05:07:43;;;;;;;10.35;8.18;;;11.80;99.90;;;;;;4902354;29;20035;-69
2023/06/05 05:10:10;;;;;;;13.35;8.75;;;12.00;99.90;;;;;;4881987;29;20043;-69
2023/06/05 05:12:38;;;;;;;10.75;7.60;;;12.10;99.90;;;;;;4905853;29;20031;-70
2023/06/05 05:15:06;;;;;;;9.05;6.32;;;12.10;99.90;;;;;;4886844;29;20836;-69
2023/06/05 05:17:33;;;;;;;10.27;8.25;;;12.20;99.90;;;;;;4869048;29;20051;-69
2023/06/05 05:19:59;;;;;;;12.23;8.50;;;12.30;99.90;;;;;;4860324;29;20506;-69
2023/06/05 05:22:26;;;;;;;9.63;6.82;;;12.40;99.90;;;;;;4885043;29;20035;-69
2023/06/05 05:24:54;;;;;;;9.90;8.13;;;12.50;99.90;;;;;;4882115;29;20032;-70
2023/06/05 05:27:21;;;;;;;8.88;7.93;;;12.60;99.90;;;;;;4883939;29;20051;-68
2023/06/05 05:29:48;;;;;;;12.48;8.38;;;12.60;99.90;;;;;;4897380;29;23238;-69
2023/06/05 05:32:14;;;;;;;7.50;5.82;;;12.70;99.90;;;;;;4904457;29;20040;-69
2023/06/05 05:34:41;;;;;;;11.40;7.85;;;12.80;99.90;;;;;;4888033;29;20052;-71
2023/06/05 05:37:08;;;;;;;10.52;6.85;;;12.90;99.90;;;;;;4884628;29;20046;-69
2023/06/05 05:39:34;;;;;;;10.48;8.57;;;13.00;99.90;;;;;;4894011;29;20391;-70
2023/06/05 05:42:02;;;;;;;12.82;9.20;;;13.10;99.90;;;;;;4880651;29;20052;-70
2023/06/05 05:44:28;;;;;;;9.93;8.23;;;13.20;99.90;;;;;;4899125;29;20051;-70
2023/06/05 05:46:54;;;;;;;13.38;8.57;;;13.30;99.90;;;;;;4900474;29;21264;-69
2023/06/05 05:49:21;;;;;;;10.77;8.15;;;13.40;99.90;;;;;;4896502;29;20046;-69
2023/06/05 05:51:47;;;;;;;10.30;7.88;;;13.50;99.90;;;;;;4896170;29;20035;-70
2023/06/05 05:54:13;;;;;;;9.90;7.43;;;13.60;99.90;;;;;;4887386;29;20543;-72
2023/06/05 05:56:40;;;;;;;7.28;6.38;;;13.80;99.90;;;;;;4904565;29;20391;-72
2023/06/05 05:59:06;;;;;;;6.85;5.15;;;13.90;99.90;;;;;;4870630;29;20051;-69
2023/06/05 06:01:32;;;;;;;7.97;6.60;;;14.20;99.90;;;;;;4876982;29;20044;-71
2023/06/05 06:03:59;;;;;;;14.68;9.02;;;14.50;99.90;;;;;;4900025;29;20035;-72
2023/06/05 06:06:25;;;;;;;7.45;5.72;;;14.70;99.90;;;;;;4898020;29;20070;-75
2023/06/05 06:08:52;;;;;;;9.68;8.07;;;14.70;99.90;;;;;;4900142;29;20030;-72
2023/06/05 06:11:18;;;;;;;10.75;7.55;;;14.80;99.90;;;;;;4892055;29;20566;-72
2023/06/05 06:13:45;;;;;;;9.10;6.88;;;14.80;99.90;;;;;;4885429;29;20055;-72
2023/06/05 06:16:11;;;;;;;9.90;7.63;;;15.00;99.90;;;;;;4871443;29;20050;-74
2023/06/05 06:18:37;;;;;;;8.43;5.40;;;15.40;99.90;;;;;;4903417;29;20578;-72
2023/06/05 06:21:04;;;;;;;8.50;5.72;;;15.50;99.90;;;;;;4877122;29;20036;-70
2023/06/05 06:23:30;;;;;;;9.57;6.85;;;15.70;99.90;;;;;;4895579;29;20468;-69
2023/06/05 06:25:57;;;;;;;6.80;4.68;;;15.90;99.90;;;;;;4899938;29;20040;-69
2023/06/05 06:28:23;;;;;;;6.82;4.88;;;16.10;99.90;;;;;;4900750;29;20048;-70
2023/06/05 06:30:50;;;;;;;6.82;5.30;;;16.20;99.90;;;;;;4874583;29;20264;-68
2023/06/05 06:33:17;;;;;;;8.23;5.78;;;16.20;99.90;;;;;;4900478;29;20496;-69
2023/06/05 06:35:43;;;;;;;8.50;5.93;;;16.20;99.90;;;;;;4904050;29;20585;-69
2023/06/05 06:38:09;;;;;;;8.50;5.47;;;16.20;99.90;;;;;;4893466;29;20047;-69
2023/06/05 06:40:36;;;;;;;12.10;8.57;;;16.20;99.90;;;;;;4898537;29;20042;-69
2023/06/05 06:43:02;;;;;;;12.73;8.05;;;16.30;99.90;;;;;;4899685;29;20051;-70
2023/06/05 06:46:01;;;;;;;7.13;5.07;;;16.30;99.90;;;;;;4881310;29;20047;-69
2023/06/05 06:48:27;;;;;;;6.35;4.32;;;16.40;99.90;;;;;;4897200;29;20039;-69
2023/06/05 06:50:54;;;;;;;6.40;4.68;;;16.60;99.90;;;;;;4878117;29;20364;-69
2023/06/05 06:53:20;;;;;;;8.98;4.93;;;16.60;99.90;;;;;;4901152;29;20133;-70
2023/06/05 06:55:47;;;;;;;6.75;4.07;;;16.70;99.90;;;;;;4901859;29;20036;-68
2023/06/05 06:58:13;;;;;;;5.88;4.03;;;16.70;99.90;;;;;;4906196;29;20043;-70
2023/06/05 07:00:40;;;;;;;7.13;4.35;;;16.80;99.90;;;;;;4870291;29;20056;-70
2023/06/05 07:03:06;;;;;;;6.80;4.68;;;16.80;99.90;;;;;;4870662;29;20659;-69
2023/06/05 07:05:33;;;;;;;9.25;4.75;;;16.80;99.90;;;;;;4901081;29;20490;-69
2023/06/05 07:08:00;;;;;;;3.95;3.00;;;16.90;99.90;;;;;;4901464;29;20040;-70
2023/06/05 07:10:30;;;;;;;4.93;3.35;;;17.00;99.90;;;;;;4893154;29;20396;-70
2023/06/05 07:12:56;;;;;;;4.75;3.15;;;17.20;99.90;;;;;;4884092;29;20044;-69
2023/06/05 07:15:23;;;;;;;4.65;3.55;;;17.30;99.90;;;;;;4900421;29;20036;-69
2023/06/05 07:17:49;;;;;;;5.43;3.35;;;17.40;99.90;;;;;;4905522;29;20612;-69
2023/06/05 07:20:16;;;;;;;6.70;4.70;;;17.50;99.90;;;;;;4900086;29;20503;-70
2023/06/05 07:22:48;;;;;;;6.88;3.45;;;17.60;99.90;;;;;;4908205;29;20055;-70
2023/06/05 07:25:16;;;;;;;6.47;3.00;;;17.70;99.90;;;;;;4903954;29;20039;-69
2023/06/05 07:27:45;;;;;;;4.40;3.50;;;17.70;99.90;;;;;;4885194;29;20413;-69
2023/06/05 07:30:14;;;;;;;5.50;3.22;;;17.90;99.90;;;;;;4895148;29;20042;-69
2023/06/05 07:32:42;;;;;;;8.60;4.38;;;18.00;99.90;;;;;;4902411;29;20423;-69
2023/06/05 07:35:09;;;;;;;5.22;3.33;;;18.10;99.90;;;;;;4883662;29;20043;-69
2023/06/05 07:37:36;;;;;;;4.97;3.22;;;18.10;99.90;;;;;;4884004;29;20047;-68
2023/06/05 07:40:02;;;;;;;6.20;4.05;;;18.20;99.90;;;;;;4878364;29;20044;-69
2023/06/05 07:42:29;;;;;;;9.48;3.90;;;18.40;99.90;;;;;;4889898;29;20043;-69
2023/06/05 07:44:55;;;;;;;6.30;3.55;;;18.40;99.90;;;;;;4905400;29;20020;-70
2023/06/05 07:47:21;;;;;;;5.65;3.25;;;18.50;99.90;;;;;;4889047;29;20046;-68
2023/06/05 07:50:03;;;;;;;4.28;2.70;;;18.60;99.90;;;;;;4879492;29;20495;-68
2023/06/05 07:52:33;;;;;;;5.00;3.13;;;18.70;99.90;;;;;;4899945;29;20108;-68
2023/06/05 07:54:59;;;;;;;4.45;3.03;;;18.80;99.90;;;;;;4885522;29;20522;-70
2023/06/05 07:57:27;;;;;;;3.53;2.97;;;19.00;99.90;;;;;;4884731;29;20055;-70
2023/06/05 07:59:54;;;;;;;7.30;3.17;;;19.10;99.60;;;;;;4860971;29;20054;-69
2023/06/05 08:02:21;;;;;;;6.15;3.35;;;19.20;99.50;;;;;;4885856;29;20035;-69
2023/06/05 08:04:47;;;;;;;3.30;2.03;;;19.30;99.30;;;;;;4907675;29;20036;-68
2023/06/05 08:07:14;;;;;;;6.10;4.20;;;19.40;99.20;;;;;;4888323;29;20043;-68
2023/06/05 08:09:40;;;;;;;5.75;3.20;;;19.60;98.70;;;;;;4878980;29;20040;-68
2023/06/05 08:12:06;;;;;;;4.47;2.80;;;19.60;98.60;;;;;;4895757;29;20051;-69
2023/06/05 08:14:34;;;;;;;4.18;2.97;;;19.70;98.60;;;;;;4868514;29;20637;-69
2023/06/05 08:17:00;;;;;;;4.53;3.20;;;19.80;98.50;;;;;;4885869;29;20527;-70
2023/06/05 08:19:27;;;;;;;4.10;3.20;;;19.90;98.10;;;;;;4897087;29;20051;-70
2023/06/05 08:21:59;;;;;;;6.28;4.10;;;20.00;98.00;;;;;;4896389;29;20404;-69
2023/06/05 08:24:28;;;;;;;5.35;3.47;;;19.90;97.70;;;;;;4906125;29;20047;-69
2023/06/05 08:26:54;;;;;;;7.43;3.47;;;19.90;97.60;;;;;;4887954;29;20066;-70
2023/06/05 08:29:20;;;;;;;6.28;4.22;;;20.00;97.60;;;;;;4903114;29;20032;-68
2023/06/05 08:31:47;;;;;;;3.83;2.55;;;20.20;97.50;;;;;;4895217;29;20051;-69
2023/06/05 08:34:13;;;;;;;7.07;3.65;;;20.30;97.40;;;;;;4884084;29;20043;-68
2023/06/05 08:36:40;;;;;;;6.32;2.78;;;20.40;97.20;;;;;;4899472;29;20086;-69
2023/06/05 08:39:06;;;;;;;3.45;2.45;;;20.50;97.20;;;;;;4900585;29;20019;-68
2023/06/05 08:41:32;;;;;;;5.18;2.78;;;20.80;97.10;;;;;;4894340;29;20052;-69
2023/06/05 08:43:59;;;;;;;5.53;3.08;;;20.90;96.80;;;;;;4886330;29;20032;-68
2023/06/05 08:46:28;;;;;;;8.25;3.28;;;21.10;96.40;;;;;;4905663;29;20043;-68
2023/06/05 08:48:57;;;;;;;5.03;2.90;;;21.20;96.20;;;;;;4903903;29;20042;-69
2023/06/05 08:51:23;;;;;;;5.50;4.03;;;21.30;95.90;;;;;;4878432;29;20487;-70
2023/06/05 08:54:12;;;;;;;7.07;3.85;;;21.30;95.50;;;;;;4883653;29;20027;-69
2023/06/05 08:56:42;;;;;;;4.43;2.50;;;21.30;95.50;;;;;;4900775;29;20534;-69
2023/06/05 08:59:14;;;;;;;5.82;2.90;;;21.50;95.50;;;;;;4897064;29;20036;-69
2023/06/05 09:01:41;;;;;;;3.35;2.08;;;21.50;95.20;;;;;;4880315;29;20054;-70
2023/06/05 09:04:07;;;;;;;3.65;2.80;;;21.60;95.00;;;;;;4897455;29;20031;-70
2023/06/05 09:06:33;;;;;;;7.10;3.72;;;21.70;94.70;;;;;;4887363;29;20035;-70
2023/06/05 09:09:03;;;;;;;6.72;3.35;;;21.80;94.60;;;;;;4902876;29;20403;-68
2023/06/05 09:11:31;;;;;;;5.60;3.28;;;21.80;94.50;;;;;;4895987;29;20587;-69
2023/06/05 09:13:59;;;;;;;4.03;3.35;;;21.90;94.20;;;;;;4882381;29;20051;-69
2023/06/05 09:16:37;;;;;;;7.30;3.42;;;22.00;94.10;;;;;;4882550;29;20050;-71
2023/06/05 09:19:04;;;;;;;6.65;4.07;;;22.10;93.80;;;;;;4883570;29;20035;-69
2023/06/05 09:21:32;;;;;;;4.55;3.25;;;22.20;93.60;;;;;;4875406;29;20063;-69
2023/06/05 09:24:15;;;;;;;6.53;3.42;;;22.10;93.30;;;;;;4883694;29;20031;-68
2023/06/05 09:27:01;;;;;;;5.40;3.20;;;22.20;93.50;;;;;;4900108;29;20058;-70
2023/06/05 09:29:38;;;;;;;4.18;3.55;;;22.40;93.50;;;;;;4900909;29;20046;-68
2023/06/05 09:32:19;;;;;;;4.10;2.65;;;22.60;93.00;;;;;;4901710;29;20364;-70
2023/06/05 09:34:53;;;;;;;6.47;2.67;;;22.80;92.90;;;;;;4900965;29;20028;-69
2023/06/05 09:37:33;;;;;;;7.25;3.17;;;22.90;92.60;;;;;;4898918;29;20040;-70
2023/06/05 09:39:59;;;;;;;4.18;2.80;;;23.10;92.40;;;;;;4890890;29;20036;-68
2023/06/05 09:42:32;;;;;;;5.20;2.63;;;23.10;91.90;;;;;;4899405;29;20035;-69
2023/06/05 09:44:59;;;;;;;4.45;2.40;;;23.10;91.70;;;;;;4899359;29;20036;-69
2023/06/05 09:47:26;;;;;;;7.90;3.20;;;23.20;91.70;;;;;;4899932;29;20041;-69
2023/06/05 09:49:52;;;;;;;4.00;2.88;;;23.30;91.30;;;;;;4895616;29;20074;-69
2023/06/05 09:52:19;;;;;;;8.85;2.92;;;23.40;91.10;;;;;;4887744;29;20027;-70
2023/06/05 09:54:46;;;;;;;4.00;2.72;;;23.60;90.80;;;;;;4903457;29;20383;-68
2023/06/05 09:57:14;;;;;;;2.72;1.98;;;23.70;90.40;;;;;;4900095;29;20538;-69
2023/06/05 09:59:51;;;;;;;4.40;2.45;;;23.80;90.40;;;;;;4877492;29;20388;-68
2023/06/05 10:02:30;;;;;;;5.20;2.03;;;23.80;90.20;;;;;;4899379;29;20958;-70
2023/06/05 10:05:03;;;;;;;5.78;2.85;;;23.90;90.20;;;;;;4898356;29;20051;-68
2023/06/05 10:07:32;;;;;;;3.95;2.42;;;24.20;90.10;;;;;;4900688;29;20039;-69
2023/06/05 10:09:58;;;;;;;2.80;2.10;;;24.30;89.70;;;;;;4897342;29;20551;-69
2023/06/05 10:12:27;;;;;;;7.70;3.97;;;24.40;89.20;;;;;;4890076;29;21009;-74
2023/06/05 10:14:55;;;;;;;7.15;4.45;;;24.60;87.60;;;;;;4908176;29;20028;-72
2023/06/05 10:17:21;;;;;;;5.47;4.50;;;24.60;87.60;;;;;;4888898;29;20487;-71
2023/06/05 10:19:48;;;;;;;6.68;3.75;;;24.70;86.70;;;;;;4880296;29;20623;-72
2023/06/05 10:22:18;;;;;;;3.55;2.67;;;24.70;85.80;;;;;;4902209;29;20050;-73
2023/06/05 10:24:47;;;;;;;4.55;2.70;;;24.70;85.80;;;;;;4903553;29;20036;-71
2023/06/05 10:27:28;;;;;;;5.10;2.38;;;24.80;85.80;;;;;;4903935;29;20372;-71
2023/06/05 10:29:57;;;;;;;7.63;2.07;;;24.90;85.30;;;;;;4895602;29;20402;-72
2023/06/05 10:32:32;;;;;;;4.45;1.60;;;25.00;85.00;;;;;;4903316;29;20024;-72
2023/06/05 10:35:18;;;;;;;4.03;2.47;;;25.30;84.70;;;;;;4907925;29;20422;-71
2023/06/05 10:37:56;;;;;;;7.68;3.45;;;25.50;83.30;;;;;;4905431;29;20040;-72
2023/06/05 10:40:24;;;;;;;6.22;2.50;;;25.70;81.30;;;;;;4896039;29;20255;-72
2023/06/05 10:42:51;;;;;;;4.95;2.97;;;25.60;81.50;;;;;;4884035;29;20055;-76
2023/06/05 10:45:31;;;;;;;5.32;3.38;;;25.90;81.30;;;;;;4885478;29;20044;-68
2023/06/05 10:47:57;;;;;;;6.00;2.97;;;26.10;80.50;;;;;;4901239;29;20054;-69
2023/06/05 10:50:25;;;;;;;9.23;3.85;;;26.30;80.50;;;;;;4878606;29;20048;-70
2023/06/05 10:52:53;;;;;;;3.70;1.77;;;26.50;78.60;;;;;;4901202;29;20055;-71
2023/06/05 10:55:21;;;;;;;5.78;2.58;;;26.60;78.60;;;;;;4906009;29;20032;-69
2023/06/05 10:58:08;;;;;;;6.88;2.85;;;26.90;77.70;;;;;;4907400;29;20023;-71
2023/06/05 11:00:35;;;;;;;6.20;3.45;;;27.10;76.80;;;;;;4880260;29;20031;-70
2023/06/05 11:03:02;;;;;;;2.90;1.88;;;27.10;74.30;;;;;;4900392;29;20043;-70
2023/06/05 11:05:30;;;;;;;3.25;1.35;;;27.10;74.80;;;;;;4901368;29;20052;-69
2023/06/05 11:08:18;;;;;;;4.93;2.33;;;27.40;74.90;;;;;;4883848;29;20035;-69
2023/06/05 11:11:09;;;;;;;5.03;2.38;;;27.60;73.20;;;;;;4894314;29;20032;-69
2023/06/05 11:13:55;;;;;;;6.57;2.50;;;27.80;72.70;;;;;;4901360;29;20688;-70
2023/06/05 11:16:36;;;;;;;3.83;2.10;;;28.20;72.80;;;;;;4887476;29;20035;-70
2023/06/05 11:19:15;;;;;;;3.30;1.95;;;28.70;72.50;;;;;;4904411;29;20043;-69
2023/06/05 11:22:10;;;;;;;5.38;2.40;;;29.10;70.80;;;;;;4897410;29;20748;-70
2023/06/05 11:24:37;;;;;;;5.68;2.85;;;29.40;69.50;;;;;;4900998;29;20040;-70
2023/06/05 11:27:05;;;;;;;4.30;1.90;;;29.40;67.90;;;;;;4900791;29;20074;-73
2023/06/05 11:29:32;;;;;;;3.00;1.95;;;29.60;67.10;;;;;;4879473;29;20393;-72
2023/06/05 11:31:59;;;;;;;3.70;2.05;;;29.80;66.10;;;;;;4867059;29;20046;-75
2023/06/05 11:34:27;;;;;;;2.33;1.13;;;29.80;66.20;;;;;;4868429;29;20557;-72
2023/06/05 11:36:54;;;;;;;4.72;2.40;;;30.10;66.00;;;;;;4884299;29;20035;-72
2023/06/05 11:39:21;;;;;;;4.68;2.92;;;30.60;65.00;;;;;;4886718;29;20040;-72
2023/06/05 11:41:51;;;;;;;4.05;2.28;;;30.80;63.60;;;;;;4885506;29;20024;-72
2023/06/05 11:44:32;;;;;;;3.17;1.85;;;30.90;63.20;;;;;;4902860;29;20044;-71
2023/06/05 11:46:58;;;;;;;6.13;1.50;;;31.10;62.70;;;;;;4902249;29;20046;-69
2023/06/05 11:49:27;;;;;;;4.43;2.33;;;31.30;62.20;;;;;;4897298;29;20046;-68
2023/06/05 11:51:54;;;;;;;3.15;1.70;;;31.60;60.50;;;;;;4880940;29;20038;-70
2023/06/05 11:54:45;;;;;;;3.83;1.55;;;31.60;59.70;;;;;;4901758;29;20036;-70
2023/06/05 11:57:13;;;;;;;4.47;2.47;;;31.80;59.10;;;;;;4901034;29;20043;-69
2023/06/05 11:59:39;;;;;;;3.28;1.23;;;31.70;58.00;;;;;;4899668;29;20458;-69
2023/06/05 12:02:06;;;;;;;3.08;1.63;;;31.70;58.30;;;;;;4887247;29;20411;-70
2023/06/05 12:04:33;;;;;;;3.13;1.83;;;31.80;57.30;;;;;;4905132;29;20078;-69
2023/06/05 12:07:01;;;;;;;3.05;1.45;;;32.10;56.90;;;;;;4901504;29;20409;-67
2023/06/05 12:09:28;;;;;;;5.85;1.80;;;32.40;56.70;;;;;;4896441;29;20479;-69
2023/06/05 12:12:08;;;;;;;4.22;1.40;;;32.80;55.70;;;;;;4897238;29;20054;-69
2023/06/05 12:14:36;;;;;;;2.97;1.33;;;33.10;55.30;;;;;;4883321;29;20044;-70
2023/06/05 12:17:10;;;;;;;4.60;2.17;;;33.40;55.00;;;;;;4868288;29;20035;-70
2023/06/05 12:19:36;;;;;;;4.22;1.45;;;33.70;54.30;;;;;;4864327;29;20051;-70
2023/06/05 12:22:05;;;;;;;4.38;1.13;;;33.70;53.10;;;;;;4903346;29;20066;-69
2023/06/05 12:24:32;;;;;;;3.13;1.70;;;33.60;52.80;;;;;;4888257;29;20549;-69
2023/06/05 12:27:01;;;;;;;4.00;1.23;;;33.80;52.50;;;;;;4904169;29;20606;-69
2023/06/05 12:29:32;;;;;;;3.20;1.40;;;34.10;52.30;;;;;;4896111;29;20044;-69
2023/06/05 12:32:01;;;;;;;4.38;1.90;;;34.30;51.50;;;;;;4880504;29;20031;-69
2023/06/05 12:34:50;;;;;;;3.33;1.52;;;34.30;50.90;;;;;;4899914;29;20051;-69
2023/06/05 12:37:31;;;;;;;5.20;1.70;;;34.30;50.50;;;;;;4882886;29;20059;-68
2023/06/05 12:40:01;;;;;;;2.17;1.52;;;34.40;49.90;;;;;;4893296;29;21205;-70
2023/06/05 12:42:35;;;;;;;2.72;1.13;;;34.20;49.20;;;;;;4902521;29;20039;-70
2023/06/05 12:45:01;;;;;;;2.78;1.00;;;33.90;48.80;;;;;;4888452;29;20455;-70
2023/06/05 12:47:28;;;;;;;2.13;1.15;;;33.90;49.40;;;;;;4905145;29;20035;-69
2023/06/05 12:49:56;;;;;;;3.83;1.38;;;34.40;49.80;;;;;;4893551;29;20464;-68
2023/06/05 12:52:25;;;;;;;3.33;1.10;;;34.80;49.20;;;;;;4900518;29;20043;-69
2023/06/05 12:54:53;;;;;;;2.83;1.25;;;35.00;48.90;;;;;;4901249;29;20061;-71